sensor_id;sensor_type;location;lat;lon;timestamp;P1;durP1;ratioP1;P2;durP2;ratioP2
32451;SDS011;45528;52.102;5.242;2022-10-23T00:01:21;16.5;;;12.0;;
32451;SDS011;45528;52.102;5.242;2022-10-23T00:03:00;18.5;;;11.4;;
32451;SDS011;45528;52.102;5.242;2022-10-23T00:04:36;21.5;;;12.9;;
32451;SDS011;45528;52.102;5.242;2022-10-23T00:07:50;17.61;;;10.8;;
32451;SDS011;45528;52.102;5.242;2022-10-23T00:09:28;19.5;;;11.8;;
32451;SDS011;45528;52.102;5.242;2022-10-23T00:11:05;19.61;;;11.8;;
32451;SDS011;45528;52.102;5.242;2022-10-23T00:12:43;15.7;;;11.1;;
32451;SDS011;45528;52.102;5.242;2022-10-23T00:15:59;19.11;;;11.7;;
32451;SDS011;45528;52.102;5.242;2022-10-23T00:17:37;17.91;;;12.2;;
32451;SDS011;45528;52.102;5.242;2022-10-23T00:19:13;15.2;;;10.8;;
32451;SDS011;45528;52.102;5.242;2022-10-23T00:22:27;18.5;;;12.0;;
32451;SDS011;45528;52.102;5.242;2022-10-23T00:24:03;15.1;;;11.3;;
32451;SDS011;45528;52.102;5.242;2022-10-23T00:25:41;14.8;;;11.6;;
32451;SDS011;45528;52.102;5.242;2022-10-23T00:28:53;18.91;;;12.0;;
32451;SDS011;45528;52.102;5.242;2022-10-23T00:30:30;21.2;;;12.4;;
32451;SDS011;45528;52.102;5.242;2022-10-23T00:32:06;19.61;;;11.8;;
32451;SDS011;45528;52.102;5.242;2022-10-23T00:33:43;17.3;;;11.9;;
32451;SDS011;45528;52.102;5.242;2022-10-23T00:36:57;16.61;;;11.3;;
32451;SDS011;45528;52.102;5.242;2022-10-23T00:38:33;20.9;;;12.8;;
32451;SDS011;45528;52.102;5.242;2022-10-23T00:40:11;15.3;;;11.4;;
32451;SDS011;45528;52.102;5.242;2022-10-23T00:43:25;19.8;;;11.8;;
32451;SDS011;45528;52.102;5.242;2022-10-23T00:45:09;18.41;;;11.5;;
32451;SDS011;45528;52.102;5.242;2022-10-23T00:46:58;18.11;;;10.7;;
32451;SDS011;45528;52.102;5.242;2022-10-23T00:48:35;19.0;;;11.4;;
32451;SDS011;45528;52.102;5.242;2022-10-23T00:51:49;18.41;;;10.8;;
32451;SDS011;45528;52.102;5.242;2022-10-23T00:53:27;17.11;;;11.3;;
32451;SDS011;45528;52.102;5.242;2022-10-23T00:55:05;14.6;;;10.9;;
32451;SDS011;45528;52.102;5.242;2022-10-23T00:56:42;14.0;;;10.21;;
32451;SDS011;45528;52.102;5.242;2022-10-23T00:59:57;15.0;;;10.21;;
32451;SDS011;45528;52.102;5.242;2022-10-23T01:01:33;16.8;;;10.8;;
32451;SDS011;45528;52.102;5.242;2022-10-23T01:03:09;17.8;;;11.1;;
32451;SDS011;45528;52.102;5.242;2022-10-23T01:06:25;17.3;;;10.7;;
32451;SDS011;45528;52.102;5.242;2022-10-23T01:08:11;16.8;;;11.3;;
32451;SDS011;45528;52.102;5.242;2022-10-23T01:09:58;17.7;;;11.2;;
32451;SDS011;45528;52.102;5.242;2022-10-23T01:11:44;17.91;;;11.3;;
32451;SDS011;45528;52.102;5.242;2022-10-23T01:13:28;16.9;;;10.8;;
32451;SDS011;45528;52.102;5.242;2022-10-23T01:16:56;12.9;;;10.1;;
32451;SDS011;45528;52.102;5.242;2022-10-23T01:18:43;18.7;;;11.5;;
32451;SDS011;45528;52.102;5.242;2022-10-23T01:20:27;16.3;;;10.6;;
32451;SDS011;45528;52.102;5.242;2022-10-23T01:22:21;17.11;;;10.8;;
32451;SDS011;45528;52.102;5.242;2022-10-23T01:24:17;14.2;;;10.0;;
32451;SDS011;45528;52.102;5.242;2022-10-23T01:26:14;16.2;;;10.3;;
32451;SDS011;45528;52.102;5.242;2022-10-23T01:28:03;16.7;;;9.81;;
32451;SDS011;45528;52.102;5.242;2022-10-23T01:31:35;15.0;;;10.21;;
32451;SDS011;45528;52.102;5.242;2022-10-23T01:33:20;15.5;;;9.6;;
32451;SDS011;45528;52.102;5.242;2022-10-23T01:35:02;15.6;;;10.1;;
32451;SDS011;45528;52.102;5.242;2022-10-23T01:36:45;16.2;;;10.6;;
32451;SDS011;45528;52.102;5.242;2022-10-23T01:40:12;14.3;;;9.4;;
32451;SDS011;45528;52.102;5.242;2022-10-23T01:41:58;16.2;;;10.21;;
32451;SDS011;45528;52.102;5.242;2022-10-23T01:43:43;13.7;;;10.21;;
32451;SDS011;45528;52.102;5.242;2022-10-23T01:45:26;16.11;;;9.9;;
32451;SDS011;45528;52.102;5.242;2022-10-23T01:47:12;15.4;;;9.6;;
32451;SDS011;45528;52.102;5.242;2022-10-23T01:50:32;17.5;;;10.1;;
32451;SDS011;45528;52.102;5.242;2022-10-23T01:52:12;16.2;;;10.1;;
32451;SDS011;45528;52.102;5.242;2022-10-23T01:53:52;16.11;;;10.7;;
32451;SDS011;45528;52.102;5.242;2022-10-23T01:55:33;16.4;;;10.0;;
32451;SDS011;45528;52.102;5.242;2022-10-23T01:58:56;18.5;;;9.81;;
32451;SDS011;45528;52.102;5.242;2022-10-23T02:00:36;16.8;;;10.3;;
32451;SDS011;45528;52.102;5.242;2022-10-23T02:02:15;18.7;;;10.21;;
32451;SDS011;45528;52.102;5.242;2022-10-23T02:03:55;18.3;;;10.7;;
32451;SDS011;45528;52.102;5.242;2022-10-23T02:07:12;19.2;;;11.0;;
32451;SDS011;45528;52.102;5.242;2022-10-23T02:08:48;15.2;;;9.81;;
32451;SDS011;45528;52.102;5.242;2022-10-23T02:10:27;16.9;;;10.6;;
32451;SDS011;45528;52.102;5.242;2022-10-23T02:12:11;17.41;;;10.3;;
32451;SDS011;45528;52.102;5.242;2022-10-23T02:15:40;16.4;;;10.1;;
32451;SDS011;45528;52.102;5.242;2022-10-23T02:17:24;20.0;;;11.0;;
32451;SDS011;45528;52.102;5.242;2022-10-23T02:19:10;16.0;;;10.0;;
32451;SDS011;45528;52.102;5.242;2022-10-23T02:20:59;16.8;;;9.81;;
32451;SDS011;45528;52.102;5.242;2022-10-23T02:22:44;13.7;;;9.71;;
32451;SDS011;45528;52.102;5.242;2022-10-23T02:24:33;13.7;;;9.0;;
32451;SDS011;45528;52.102;5.242;2022-10-23T02:27:54;15.5;;;9.81;;
32451;SDS011;45528;52.102;5.242;2022-10-23T02:29:35;14.3;;;8.0;;
32451;SDS011;45528;52.102;5.242;2022-10-23T02:31:15;17.41;;;10.1;;
32451;SDS011;45528;52.102;5.242;2022-10-23T02:32:55;14.0;;;9.5;;
32451;SDS011;45528;52.102;5.242;2022-10-23T02:36:09;16.2;;;10.0;;
32451;SDS011;45528;52.102;5.242;2022-10-23T02:37:51;18.11;;;9.81;;
32451;SDS011;45528;52.102;5.242;2022-10-23T02:39:28;19.7;;;9.21;;
32451;SDS011;45528;52.102;5.242;2022-10-23T02:42:55;16.7;;;9.6;;
32451;SDS011;45528;52.102;5.242;2022-10-23T02:44:39;18.91;;;10.6;;
32451;SDS011;45528;52.102;5.242;2022-10-23T02:46:27;18.5;;;10.4;;
32451;SDS011;45528;52.102;5.242;2022-10-23T02:48:12;20.3;;;9.9;;
32451;SDS011;45528;52.102;5.242;2022-10-23T02:49:56;13.4;;;9.5;;
32451;SDS011;45528;52.102;5.242;2022-10-23T02:51:43;15.8;;;9.0;;
32451;SDS011;45528;52.102;5.242;2022-10-23T02:55:21;14.6;;;9.31;;
32451;SDS011;45528;52.102;5.242;2022-10-23T02:57:09;11.8;;;8.31;;
32451;SDS011;45528;52.102;5.242;2022-10-23T02:58:58;13.9;;;8.71;;
32451;SDS011;45528;52.102;5.242;2022-10-23T03:00:44;12.8;;;9.71;;
32451;SDS011;45528;52.102;5.242;2022-10-23T03:02:28;16.2;;;9.21;;
32451;SDS011;45528;52.102;5.242;2022-10-23T03:05:49;17.8;;;9.4;;
32451;SDS011;45528;52.102;5.242;2022-10-23T03:07:25;19.3;;;9.6;;
32451;SDS011;45528;52.102;5.242;2022-10-23T03:09:03;14.9;;;9.5;;
32451;SDS011;45528;52.102;5.242;2022-10-23T03:10:43;17.61;;;9.31;;
32451;SDS011;45528;52.102;5.242;2022-10-23T03:13:56;18.2;;;10.0;;
32451;SDS011;45528;52.102;5.242;2022-10-23T03:15:33;21.8;;;10.1;;
32451;SDS011;45528;52.102;5.242;2022-10-23T03:17:09;17.3;;;9.6;;
32451;SDS011;45528;52.102;5.242;2022-10-23T03:20:22;16.11;;;9.0;;
32451;SDS011;45528;52.102;5.242;2022-10-23T03:21:59;14.0;;;8.5;;
32451;SDS011;45528;52.102;5.242;2022-10-23T03:23:35;14.6;;;9.4;;
32451;SDS011;45528;52.102;5.242;2022-10-23T03:25:12;14.9;;;9.4;;
32451;SDS011;45528;52.102;5.242;2022-10-23T03:28:25;13.5;;;8.81;;
32451;SDS011;45528;52.102;5.242;2022-10-23T03:30:01;13.1;;;9.0;;
32451;SDS011;45528;52.102;5.242;2022-10-23T03:31:39;19.11;;;9.81;;
32451;SDS011;45528;52.102;5.242;2022-10-23T03:34:51;14.6;;;9.71;;
32451;SDS011;45528;52.102;5.242;2022-10-23T03:36:28;15.9;;;9.6;;
32451;SDS011;45528;52.102;5.242;2022-10-23T03:38:05;13.7;;;9.71;;
32451;SDS011;45528;52.102;5.242;2022-10-23T03:41:17;17.3;;;10.0;;
32451;SDS011;45528;52.102;5.242;2022-10-23T03:42:53;17.3;;;9.4;;
32451;SDS011;45528;52.102;5.242;2022-10-23T03:44:30;18.11;;;10.4;;
32451;SDS011;45528;52.102;5.242;2022-10-23T03:46:08;16.61;;;9.5;;
32451;SDS011;45528;52.102;5.242;2022-10-23T03:49:27;15.7;;;9.5;;
32451;SDS011;45528;52.102;5.242;2022-10-23T03:51:03;15.5;;;9.21;;
32451;SDS011;45528;52.102;5.242;2022-10-23T03:52:41;19.2;;;10.1;;
32451;SDS011;45528;52.102;5.242;2022-10-23T03:55:56;14.9;;;9.5;;
32451;SDS011;45528;52.102;5.242;2022-10-23T03:57:34;14.9;;;9.81;;
32451;SDS011;45528;52.102;5.242;2022-10-23T03:59:11;16.5;;;9.81;;
32451;SDS011;45528;52.102;5.242;2022-10-23T04:00:47;17.2;;;10.1;;
32451;SDS011;45528;52.102;5.242;2022-10-23T04:04:00;15.3;;;9.6;;
32451;SDS011;45528;52.102;5.242;2022-10-23T04:05:39;16.3;;;10.3;;
32451;SDS011;45528;52.102;5.242;2022-10-23T04:07:16;18.91;;;10.8;;
32451;SDS011;45528;52.102;5.242;2022-10-23T04:10:28;16.5;;;9.71;;
32451;SDS011;45528;52.102;5.242;2022-10-23T04:12:04;15.5;;;9.9;;
32451;SDS011;45528;52.102;5.242;2022-10-23T04:13:41;15.2;;;8.71;;
32451;SDS011;45528;52.102;5.242;2022-10-23T04:16:54;16.8;;;9.0;;
32451;SDS011;45528;52.102;5.242;2022-10-23T04:18:31;22.0;;;10.21;;
32451;SDS011;45528;52.102;5.242;2022-10-23T04:20:07;13.9;;;8.71;;
32451;SDS011;45528;52.102;5.242;2022-10-23T04:21:44;13.2;;;8.6;;
32451;SDS011;45528;52.102;5.242;2022-10-23T04:24:56;15.3;;;8.4;;
32451;SDS011;45528;52.102;5.242;2022-10-23T04:26:33;16.0;;;9.4;;
32451;SDS011;45528;52.102;5.242;2022-10-23T04:28:10;17.3;;;9.71;;
32451;SDS011;45528;52.102;5.242;2022-10-23T04:31:24;17.3;;;9.71;;
32451;SDS011;45528;52.102;5.242;2022-10-23T04:33:01;14.3;;;9.21;;
32451;SDS011;45528;52.102;5.242;2022-10-23T04:34:38;16.8;;;9.5;;
32451;SDS011;45528;52.102;5.242;2022-10-23T04:37:51;19.5;;;9.81;;
32451;SDS011;45528;52.102;5.242;2022-10-23T04:39:28;20.0;;;9.4;;
32451;SDS011;45528;52.102;5.242;2022-10-23T04:41:04;20.7;;;9.6;;
32451;SDS011;45528;52.102;5.242;2022-10-23T04:42:41;13.6;;;8.71;;
32451;SDS011;45528;52.102;5.242;2022-10-23T04:45:54;21.9;;;9.9;;
32451;SDS011;45528;52.102;5.242;2022-10-23T04:47:30;14.7;;;9.21;;
32451;SDS011;45528;52.102;5.242;2022-10-23T04:49:06;16.2;;;9.1;;
32451;SDS011;45528;52.102;5.242;2022-10-23T04:52:19;19.41;;;9.5;;
32451;SDS011;45528;52.102;5.242;2022-10-23T04:53:55;13.7;;;8.81;;
32451;SDS011;45528;52.102;5.242;2022-10-23T04:55:33;15.2;;;9.21;;
32451;SDS011;45528;52.102;5.242;2022-10-23T04:58:45;22.0;;;9.21;;
32451;SDS011;45528;52.102;5.242;2022-10-23T05:00:22;15.2;;;8.4;;
32451;SDS011;45528;52.102;5.242;2022-10-23T05:01:58;15.4;;;8.31;;
32451;SDS011;45528;52.102;5.242;2022-10-23T05:03:35;16.11;;;8.9;;
32451;SDS011;45528;52.102;5.242;2022-10-23T05:06:48;18.5;;;9.1;;
32451;SDS011;45528;52.102;5.242;2022-10-23T05:08:25;13.6;;;8.6;;
32451;SDS011;45528;52.102;5.242;2022-10-23T05:10:02;14.5;;;7.8;;
32451;SDS011;45528;52.102;5.242;2022-10-23T05:13:16;14.5;;;7.8;;
32451;SDS011;45528;52.102;5.242;2022-10-23T05:14:56;13.3;;;8.71;;
32451;SDS011;45528;52.102;5.242;2022-10-23T05:16:34;17.91;;;8.6;;
32451;SDS011;45528;52.102;5.242;2022-10-23T05:18:19;15.2;;;8.71;;
32451;SDS011;45528;52.102;5.242;2022-10-23T05:21:40;17.3;;;9.0;;
32451;SDS011;45528;52.102;5.242;2022-10-23T05:23:18;12.0;;;8.4;;
32451;SDS011;45528;52.102;5.242;2022-10-23T05:25:01;12.3;;;7.9;;
32451;SDS011;45528;52.102;5.242;2022-10-23T05:26:39;12.1;;;7.6;;
32451;SDS011;45528;52.102;5.242;2022-10-23T05:29:51;15.6;;;8.2;;
32451;SDS011;45528;52.102;5.242;2022-10-23T05:31:27;14.0;;;8.6;;
32451;SDS011;45528;52.102;5.242;2022-10-23T05:33:04;15.7;;;8.6;;
32451;SDS011;45528;52.102;5.242;2022-10-23T05:36:18;12.2;;;7.6;;
32451;SDS011;45528;52.102;5.242;2022-10-23T05:37:55;13.8;;;7.5;;
32451;SDS011;45528;52.102;5.242;2022-10-23T05:39:33;10.3;;;6.3;;
32451;SDS011;45528;52.102;5.242;2022-10-23T05:41:10;14.4;;;7.5;;
32451;SDS011;45528;52.102;5.242;2022-10-23T05:44:23;12.6;;;7.4;;
32451;SDS011;45528;52.102;5.242;2022-10-23T05:46:02;15.3;;;7.3;;
32451;SDS011;45528;52.102;5.242;2022-10-23T05:47:42;11.4;;;6.8;;
32451;SDS011;45528;52.102;5.242;2022-10-23T05:51:01;11.8;;;6.5;;
32451;SDS011;45528;52.102;5.242;2022-10-23T05:52:38;13.8;;;7.5;;
32451;SDS011;45528;52.102;5.242;2022-10-23T05:54:14;15.7;;;6.8;;
32451;SDS011;45528;52.102;5.242;2022-10-23T05:55:51;10.0;;;6.4;;
32451;SDS011;45528;52.102;5.242;2022-10-23T05:59:07;9.6;;;6.4;;
32451;SDS011;45528;52.102;5.242;2022-10-23T06:00:45;10.0;;;6.5;;
32451;SDS011;45528;52.102;5.242;2022-10-23T06:02:21;11.8;;;6.0;;
32451;SDS011;45528;52.102;5.242;2022-10-23T06:05:35;11.3;;;5.8;;
32451;SDS011;45528;52.102;5.242;2022-10-23T06:07:11;11.0;;;6.5;;
32451;SDS011;45528;52.102;5.242;2022-10-23T06:08:47;12.0;;;6.4;;
32451;SDS011;45528;52.102;5.242;2022-10-23T06:11:59;7.6;;;5.5;;
32451;SDS011;45528;52.102;5.242;2022-10-23T06:13:36;10.4;;;5.8;;
32451;SDS011;45528;52.102;5.242;2022-10-23T06:15:14;12.0;;;6.0;;
32451;SDS011;45528;52.102;5.242;2022-10-23T06:16:51;8.1;;;5.0;;
32451;SDS011;45528;52.102;5.242;2022-10-23T06:20:04;13.5;;;5.5;;
32451;SDS011;45528;52.102;5.242;2022-10-23T06:21:42;11.5;;;5.11;;
32451;SDS011;45528;52.102;5.242;2022-10-23T06:23:18;9.4;;;5.6;;
32451;SDS011;45528;52.102;5.242;2022-10-23T06:26:32;8.4;;;4.8;;
32451;SDS011;45528;52.102;5.242;2022-10-23T06:28:09;8.2;;;5.4;;
32451;SDS011;45528;52.102;5.242;2022-10-23T06:29:45;8.4;;;5.0;;
32451;SDS011;45528;52.102;5.242;2022-10-23T06:31:26;10.1;;;4.8;;
32451;SDS011;45528;52.102;5.242;2022-10-23T06:34:39;8.71;;;4.8;;
32451;SDS011;45528;52.102;5.242;2022-10-23T06:36:15;9.0;;;4.41;;
32451;SDS011;45528;52.102;5.242;2022-10-23T06:37:51;9.1;;;4.5;;
32451;SDS011;45528;52.102;5.242;2022-10-23T06:41:04;8.2;;;4.2;;
32451;SDS011;45528;52.102;5.242;2022-10-23T06:42:43;8.2;;;4.3;;
32451;SDS011;45528;52.102;5.242;2022-10-23T06:44:19;11.5;;;4.5;;
32451;SDS011;45528;52.102;5.242;2022-10-23T06:47:36;8.1;;;4.3;;
32451;SDS011;45528;52.102;5.242;2022-10-23T06:49:12;7.0;;;4.1;;
32451;SDS011;45528;52.102;5.242;2022-10-23T06:50:50;8.71;;;4.1;;
32451;SDS011;45528;52.102;5.242;2022-10-23T06:52:27;8.2;;;4.5;;
32451;SDS011;45528;52.102;5.242;2022-10-23T06:55:40;6.7;;;4.0;;
32451;SDS011;45528;52.102;5.242;2022-10-23T06:57:16;8.71;;;4.0;;
32451;SDS011;45528;52.102;5.242;2022-10-23T06:58:52;9.5;;;4.1;;
32451;SDS011;45528;52.102;5.242;2022-10-23T07:02:04;7.9;;;4.0;;
32451;SDS011;45528;52.102;5.242;2022-10-23T07:03:41;6.8;;;3.8;;
32451;SDS011;45528;52.102;5.242;2022-10-23T07:05:18;6.9;;;3.9;;
32451;SDS011;45528;52.102;5.242;2022-10-23T07:08:33;7.4;;;4.61;;
32451;SDS011;45528;52.102;5.242;2022-10-23T07:10:10;7.4;;;4.3;;
32451;SDS011;45528;52.102;5.242;2022-10-23T07:11:46;8.9;;;4.7;;
32451;SDS011;45528;52.102;5.242;2022-10-23T07:13:24;9.0;;;4.7;;
32451;SDS011;45528;52.102;5.242;2022-10-23T07:16:36;8.1;;;4.61;;
32451;SDS011;45528;52.102;5.242;2022-10-23T07:18:14;10.0;;;4.3;;
32451;SDS011;45528;52.102;5.242;2022-10-23T07:19:50;6.5;;;4.41;;
32451;SDS011;45528;52.102;5.242;2022-10-23T07:23:04;8.31;;;4.5;;
32451;SDS011;45528;52.102;5.242;2022-10-23T07:24:42;8.6;;;4.5;;
32451;SDS011;45528;52.102;5.242;2022-10-23T07:26:19;10.9;;;4.91;;
32451;SDS011;45528;52.102;5.242;2022-10-23T07:27:56;9.9;;;5.11;;
32451;SDS011;45528;52.102;5.242;2022-10-23T07:31:09;6.8;;;4.41;;
32451;SDS011;45528;52.102;5.242;2022-10-23T07:32:46;7.9;;;4.41;;
32451;SDS011;45528;52.102;5.242;2022-10-23T07:34:23;10.4;;;4.5;;
32451;SDS011;45528;52.102;5.242;2022-10-23T07:37:35;7.9;;;4.41;;
32451;SDS011;45528;52.102;5.242;2022-10-23T07:39:13;9.81;;;4.1;;
32451;SDS011;45528;52.102;5.242;2022-10-23T07:40:49;6.6;;;4.0;;
32451;SDS011;45528;52.102;5.242;2022-10-23T07:44:02;11.3;;;4.7;;
32451;SDS011;45528;52.102;5.242;2022-10-23T07:45:39;6.5;;;3.9;;
32451;SDS011;45528;52.102;5.242;2022-10-23T07:47:16;7.7;;;4.1;;
32451;SDS011;45528;52.102;5.242;2022-10-23T07:48:52;7.8;;;4.0;;
32451;SDS011;45528;52.102;5.242;2022-10-23T07:52:05;5.9;;;3.7;;
32451;SDS011;45528;52.102;5.242;2022-10-23T07:53:42;12.2;;;5.5;;
32451;SDS011;45528;52.102;5.242;2022-10-23T07:55:19;7.1;;;4.1;;
32451;SDS011;45528;52.102;5.242;2022-10-23T07:58:33;8.0;;;3.9;;
32451;SDS011;45528;52.102;5.242;2022-10-23T08:00:11;9.0;;;4.8;;
32451;SDS011;45528;52.102;5.242;2022-10-23T08:01:48;9.21;;;4.5;;
32451;SDS011;45528;52.102;5.242;2022-10-23T08:05:02;8.0;;;4.2;;
32451;SDS011;45528;52.102;5.242;2022-10-23T08:06:39;10.0;;;4.3;;
32451;SDS011;45528;52.102;5.242;2022-10-23T08:08:15;9.9;;;4.0;;
32451;SDS011;45528;52.102;5.242;2022-10-23T08:09:51;7.0;;;3.9;;
32451;SDS011;45528;52.102;5.242;2022-10-23T08:13:10;8.31;;;4.2;;
32451;SDS011;45528;52.102;5.242;2022-10-23T08:14:48;7.5;;;4.3;;
32451;SDS011;45528;52.102;5.242;2022-10-23T08:16:24;8.31;;;3.6;;
32451;SDS011;45528;52.102;5.242;2022-10-23T08:19:36;11.1;;;4.0;;
32451;SDS011;45528;52.102;5.242;2022-10-23T08:21:13;8.2;;;3.9;;
32451;SDS011;45528;52.102;5.242;2022-10-23T08:22:49;7.9;;;4.1;;
32451;SDS011;45528;52.102;5.242;2022-10-23T08:24:26;9.4;;;4.1;;
32451;SDS011;45528;52.102;5.242;2022-10-23T08:27:41;6.7;;;3.9;;
32451;SDS011;45528;52.102;5.242;2022-10-23T08:29:17;6.0;;;3.4;;
32451;SDS011;45528;52.102;5.242;2022-10-23T08:30:54;7.3;;;3.5;;
32451;SDS011;45528;52.102;5.242;2022-10-23T08:34:07;8.81;;;3.6;;
32451;SDS011;45528;52.102;5.242;2022-10-23T08:35:44;9.21;;;3.7;;
32451;SDS011;45528;52.102;5.242;2022-10-23T08:37:20;6.6;;;3.5;;
32451;SDS011;45528;52.102;5.242;2022-10-23T08:40:34;6.4;;;3.6;;
32451;SDS011;45528;52.102;5.242;2022-10-23T08:42:16;6.4;;;3.1;;
32451;SDS011;45528;52.102;5.242;2022-10-23T08:44:00;7.6;;;3.3;;
32451;SDS011;45528;52.102;5.242;2022-10-23T08:45:44;7.1;;;3.5;;
32451;SDS011;45528;52.102;5.242;2022-10-23T08:47:26;8.1;;;3.4;;
32451;SDS011;45528;52.102;5.242;2022-10-23T08:51:12;5.7;;;3.2;;
32451;SDS011;45528;52.102;5.242;2022-10-23T08:52:57;6.0;;;2.8;;
32451;SDS011;45528;52.102;5.242;2022-10-23T08:54:42;7.2;;;3.3;;
32451;SDS011;45528;52.102;5.242;2022-10-23T08:56:29;8.0;;;3.6;;
32451;SDS011;45528;52.102;5.242;2022-10-23T08:58:11;8.9;;;4.2;;
32451;SDS011;45528;52.102;5.242;2022-10-23T09:01:36;6.5;;;3.3;;
32451;SDS011;45528;52.102;5.242;2022-10-23T09:03:16;9.5;;;3.5;;
32451;SDS011;45528;52.102;5.242;2022-10-23T09:04:53;5.7;;;3.0;;
32451;SDS011;45528;52.102;5.242;2022-10-23T09:06:34;5.3;;;2.8;;
32451;SDS011;45528;52.102;5.242;2022-10-23T09:10:12;7.8;;;3.0;;
32451;SDS011;45528;52.102;5.242;2022-10-23T09:12:12;5.5;;;2.7;;
32451;SDS011;45528;52.102;5.242;2022-10-23T09:13:55;5.9;;;2.8;;
32451;SDS011;45528;52.102;5.242;2022-10-23T09:16:46;8.71;;;2.9;;
32451;SDS011;45528;52.102;5.242;2022-10-23T09:20:18;7.0;;;2.8;;
32451;SDS011;45528;52.102;5.242;2022-10-23T09:21:57;5.8;;;3.0;;
32451;SDS011;45528;52.102;5.242;2022-10-23T09:23:34;8.4;;;2.8;;
32451;SDS011;45528;52.102;5.242;2022-10-23T09:25:15;4.91;;;2.7;;
32451;SDS011;45528;52.102;5.242;2022-10-23T09:28:34;6.6;;;2.8;;
32451;SDS011;45528;52.102;5.242;2022-10-23T09:30:24;6.4;;;2.6;;
32451;SDS011;45528;52.102;5.242;2022-10-23T09:32:04;5.11;;;2.5;;
32451;SDS011;45528;52.102;5.242;2022-10-23T09:33:52;8.4;;;3.0;;
32451;SDS011;45528;52.102;5.242;2022-10-23T09:35:30;7.5;;;2.7;;
32451;SDS011;45528;52.102;5.242;2022-10-23T09:38:58;6.6;;;2.8;;
32451;SDS011;45528;52.102;5.242;2022-10-23T09:40:37;5.3;;;2.4;;
32451;SDS011;45528;52.102;5.242;2022-10-23T09:42:20;7.0;;;2.5;;
32451;SDS011;45528;52.102;5.242;2022-10-23T09:44:00;4.2;;;2.6;;
32451;SDS011;45528;52.102;5.242;2022-10-23T09:47:32;6.8;;;2.4;;
32451;SDS011;45528;52.102;5.242;2022-10-23T09:49:14;5.3;;;2.21;;
32451;SDS011;45528;52.102;5.242;2022-10-23T09:50:53;4.61;;;2.1;;
32451;SDS011;45528;52.102;5.242;2022-10-23T09:52:33;7.4;;;2.4;;
32451;SDS011;45528;52.102;5.242;2022-10-23T09:55:51;4.41;;;2.1;;
32451;SDS011;45528;52.102;5.242;2022-10-23T09:57:32;4.3;;;2.0;;
32451;SDS011;45528;52.102;5.242;2022-10-23T09:59:18;5.4;;;2.31;;
32451;SDS011;45528;52.102;5.242;2022-10-23T10:00:58;5.5;;;2.21;;
32451;SDS011;45528;52.102;5.242;2022-10-23T10:04:12;5.9;;;2.0;;
32451;SDS011;45528;52.102;5.242;2022-10-23T10:05:53;4.5;;;2.0;;
32451;SDS011;45528;52.102;5.242;2022-10-23T10:07:36;4.8;;;2.1;;
32451;SDS011;45528;52.102;5.242;2022-10-23T10:09:14;4.5;;;2.1;;
32451;SDS011;45528;52.102;5.242;2022-10-23T10:12:40;4.5;;;2.1;;
32451;SDS011;45528;52.102;5.242;2022-10-23T10:14:28;3.9;;;1.8;;
32451;SDS011;45528;52.102;5.242;2022-10-23T10:16:24;3.9;;;2.0;;
32451;SDS011;45528;52.102;5.242;2022-10-23T10:18:11;4.1;;;1.9;;
32451;SDS011;45528;52.102;5.242;2022-10-23T10:19:57;7.0;;;1.9;;
32451;SDS011;45528;52.102;5.242;2022-10-23T10:22:00;5.6;;;2.1;;
32451;SDS011;45528;52.102;5.242;2022-10-23T10:23:51;4.3;;;2.1;;
32451;SDS011;45528;52.102;5.242;2022-10-23T10:27:19;4.5;;;2.0;;
32451;SDS011;45528;52.102;5.242;2022-10-23T10:29:12;6.0;;;2.1;;
32451;SDS011;45528;52.102;5.242;2022-10-23T10:31:00;3.4;;;1.5;;
32451;SDS011;45528;52.102;5.242;2022-10-23T10:32:49;5.5;;;2.21;;
32451;SDS011;45528;52.102;5.242;2022-10-23T10:34:35;6.9;;;2.0;;
32451;SDS011;45528;52.102;5.242;2022-10-23T10:36:28;4.41;;;1.8;;
32451;SDS011;45528;52.102;5.242;2022-10-23T10:38:20;4.41;;;1.9;;
32451;SDS011;45528;52.102;5.242;2022-10-23T10:42:09;4.3;;;1.6;;
32451;SDS011;45528;52.102;5.242;2022-10-23T10:44:20;3.7;;;1.8;;
32451;SDS011;45528;52.102;5.242;2022-10-23T10:46:08;6.2;;;1.8;;
32451;SDS011;45528;52.102;5.242;2022-10-23T10:47:59;5.0;;;2.1;;
32451;SDS011;45528;52.102;5.242;2022-10-23T10:49:53;4.2;;;1.9;;
32451;SDS011;45528;52.102;5.242;2022-10-23T10:51:40;7.2;;;2.0;;
32451;SDS011;45528;52.102;5.242;2022-10-23T10:53:27;6.7;;;1.9;;
32451;SDS011;45528;52.102;5.242;2022-10-23T10:55:15;4.91;;;1.9;;
32451;SDS011;45528;52.102;5.242;2022-10-23T10:58:45;4.7;;;1.9;;
32451;SDS011;45528;52.102;5.242;2022-10-23T11:00:25;4.61;;;1.7;;
32451;SDS011;45528;52.102;5.242;2022-10-23T11:02:11;4.8;;;2.0;;
32451;SDS011;45528;52.102;5.242;2022-10-23T11:04:00;4.7;;;2.4;;
32451;SDS011;45528;52.102;5.242;2022-10-23T11:05:46;4.1;;;2.4;;
32451;SDS011;45528;52.102;5.242;2022-10-23T11:09:13;6.0;;;2.0;;
32451;SDS011;45528;52.102;5.242;2022-10-23T11:10:55;5.0;;;1.6;;
32451;SDS011;45528;52.102;5.242;2022-10-23T11:12:38;3.8;;;1.6;;
32451;SDS011;45528;52.102;5.242;2022-10-23T11:14:16;4.61;;;1.6;;
32451;SDS011;45528;52.102;5.242;2022-10-23T11:17:37;6.3;;;1.9;;
32451;SDS011;45528;52.102;5.242;2022-10-23T11:19:19;5.0;;;1.7;;
32451;SDS011;45528;52.102;5.242;2022-10-23T11:21:03;3.7;;;1.6;;
32451;SDS011;45528;52.102;5.242;2022-10-23T11:22:54;5.3;;;1.9;;
32451;SDS011;45528;52.102;5.242;2022-10-23T11:24:47;6.0;;;1.8;;
32451;SDS011;45528;52.102;5.242;2022-10-23T11:27:40;6.4;;;1.7;;
32451;SDS011;45528;52.102;5.242;2022-10-23T11:29:44;5.11;;;1.9;;
32451;SDS011;45528;52.102;5.242;2022-10-23T11:32:02;5.11;;;1.9;;
32451;SDS011;45528;52.102;5.242;2022-10-23T11:34:06;3.5;;;1.8;;
32451;SDS011;45528;52.102;5.242;2022-10-23T11:36:44;4.1;;;2.1;;
32451;SDS011;45528;52.102;5.242;2022-10-23T11:38:25;5.0;;;2.0;;
32451;SDS011;45528;52.102;5.242;2022-10-23T11:40:11;5.11;;;1.8;;
32451;SDS011;45528;52.102;5.242;2022-10-23T11:42:10;5.2;;;1.8;;
32451;SDS011;45528;52.102;5.242;2022-10-23T11:43:50;6.3;;;2.0;;
32451;SDS011;45528;52.102;5.242;2022-10-23T11:45:30;4.91;;;2.0;;
32451;SDS011;45528;52.102;5.242;2022-10-23T11:49:18;6.5;;;1.9;;
32451;SDS011;45528;52.102;5.242;2022-10-23T11:50:56;4.5;;;1.6;;
32451;SDS011;45528;52.102;5.242;2022-10-23T11:52:33;3.5;;;1.6;;
32451;SDS011;45528;52.102;5.242;2022-10-23T11:54:26;4.0;;;1.8;;
32451;SDS011;45528;52.102;5.242;2022-10-23T11:56:04;5.6;;;1.7;;
32451;SDS011;45528;52.102;5.242;2022-10-23T11:58:17;5.7;;;1.9;;
32451;SDS011;45528;52.102;5.242;2022-10-23T12:00:59;4.5;;;1.7;;
32451;SDS011;45528;52.102;5.242;2022-10-23T12:02:40;5.6;;;1.8;;
32451;SDS011;45528;52.102;5.242;2022-10-23T12:04:20;4.3;;;1.9;;
32451;SDS011;45528;52.102;5.242;2022-10-23T12:07:39;5.2;;;1.4;;
32451;SDS011;45528;52.102;5.242;2022-10-23T12:09:22;5.11;;;1.8;;
32451;SDS011;45528;52.102;5.242;2022-10-23T12:11:03;4.3;;;1.6;;
32451;SDS011;45528;52.102;5.242;2022-10-23T12:12:42;3.9;;;1.7;;
32451;SDS011;45528;52.102;5.242;2022-10-23T12:14:32;3.7;;;1.8;;
32451;SDS011;45528;52.102;5.242;2022-10-23T12:17:49;4.1;;;1.7;;
32451;SDS011;45528;52.102;5.242;2022-10-23T12:19:29;3.8;;;1.8;;
32451;SDS011;45528;52.102;5.242;2022-10-23T12:21:27;4.91;;;1.9;;
32451;SDS011;45528;52.102;5.242;2022-10-23T12:23:08;5.6;;;1.9;;
32451;SDS011;45528;52.102;5.242;2022-10-23T12:25:02;6.7;;;2.0;;
32451;SDS011;45528;52.102;5.242;2022-10-23T12:28:42;4.0;;;2.21;;
32451;SDS011;45528;52.102;5.242;2022-10-23T12:30:27;4.5;;;2.0;;
32451;SDS011;45528;52.102;5.242;2022-10-23T12:32:17;3.8;;;1.8;;
32451;SDS011;45528;52.102;5.242;2022-10-23T12:34:09;3.8;;;1.7;;
32451;SDS011;45528;52.102;5.242;2022-10-23T12:36:04;7.1;;;2.0;;
32451;SDS011;45528;52.102;5.242;2022-10-23T12:38:00;5.7;;;1.8;;
32451;SDS011;45528;52.102;5.242;2022-10-23T12:39:50;7.9;;;1.8;;
32451;SDS011;45528;52.102;5.242;2022-10-23T12:43:20;3.1;;;1.8;;
32451;SDS011;45528;52.102;5.242;2022-10-23T12:45:02;5.6;;;1.7;;
32451;SDS011;45528;52.102;5.242;2022-10-23T12:46:52;5.5;;;1.6;;
32451;SDS011;45528;52.102;5.242;2022-10-23T12:48:32;4.7;;;2.0;;